createdAt,value
2023-05-16T00:01:40.206Z,98042.75
2023-05-16T00:04:07.422Z,98045.66
2023-05-16T00:06:34.836Z,98045.34
2023-05-16T00:09:01.664Z,98036.19
2023-05-16T00:11:28.428Z,98038.59
2023-05-16T00:13:54.908Z,98045.28
2023-05-16T00:16:21.902Z,98045.28
2023-05-16T00:18:48.597Z,98035.25
2023-05-16T00:21:15.138Z,98043.84
2023-05-16T00:23:42.133Z,98036.97
2023-05-16T00:26:08.657Z,98040.00
2023-05-16T00:28:35.224Z,98033.91
2023-05-16T00:31:01.761Z,98033.38
2023-05-16T00:33:28.245Z,98038.50
2023-05-16T00:35:54.761Z,98036.88
2023-05-16T00:38:21.242Z,98041.22
2023-05-16T00:40:47.795Z,98047.31
2023-05-16T00:43:14.284Z,98057.44
2023-05-16T00:45:40.759Z,98053.81
2023-05-16T00:48:07.353Z,98047.81
2023-05-16T00:50:33.936Z,98046.81
2023-05-16T00:53:00.556Z,98048.38
2023-05-16T00:55:27.268Z,98049.75
2023-05-16T00:57:53.746Z,98054.50
2023-05-16T01:00:20.375Z,98047.09
2023-05-16T01:02:47.752Z,98056.91
2023-05-16T01:05:14.357Z,98053.84
2023-05-16T01:07:41.153Z,98055.06
2023-05-16T01:10:08.208Z,98053.44
2023-05-16T01:12:56.386Z,98052.41
2023-05-16T01:15:28.751Z,98054.94
2023-05-16T01:18:04.785Z,98055.88
2023-05-16T01:21:01.010Z,98052.91
2023-05-16T01:23:48.854Z,98048.06
2023-05-16T01:26:16.786Z,98051.47
2023-05-16T01:28:45.068Z,98043.34
2023-05-16T01:31:11.582Z,98039.09
2023-05-16T01:33:38.149Z,98037.06
2023-05-16T01:36:21.977Z,98034.41
2023-05-16T01:39:09.294Z,98044.88
2023-05-16T01:42:04.738Z,98046.03
2023-05-16T01:44:42.111Z,98037.88
2023-05-16T01:47:12.044Z,98047.91
2023-05-16T01:49:41.601Z,98044.91
2023-05-16T01:52:09.923Z,98060.31
2023-05-16T01:54:37.976Z,98049.75
2023-05-16T01:57:04.726Z,98056.31
2023-05-16T01:59:31.204Z,98059.88
2023-05-16T02:01:57.680Z,98063.59
2023-05-16T02:04:24.365Z,98077.28
2023-05-16T02:06:51.291Z,98068.28
2023-05-16T02:09:17.843Z,98066.72
2023-05-16T02:11:44.390Z,98069.94
2023-05-16T02:14:11.095Z,98067.50
2023-05-16T02:16:38.003Z,98072.59
2023-05-16T02:19:04.550Z,98064.84
2023-05-16T02:21:31.242Z,98069.94
2023-05-16T02:23:57.708Z,98067.16
2023-05-16T02:26:24.210Z,98061.94
2023-05-16T02:28:50.783Z,98063.81
2023-05-16T02:31:35.555Z,98072.69
2023-05-16T02:34:02.840Z,98082.03
2023-05-16T02:36:29.420Z,98087.00
2023-05-16T02:38:55.995Z,98081.81
2023-05-16T02:41:23.205Z,98086.66
2023-05-16T02:43:49.838Z,98093.34
2023-05-16T02:46:27.832Z,98099.00
2023-05-16T02:48:54.617Z,98099.22
2023-05-16T02:51:21.857Z,98102.00
2023-05-16T02:53:48.573Z,98101.88
2023-05-16T02:56:16.086Z,98111.13
2023-05-16T02:58:43.076Z,98107.66
2023-05-16T03:01:09.816Z,98116.28
2023-05-16T03:03:37.216Z,98111.31
2023-05-16T03:06:03.825Z,98115.00
2023-05-16T03:08:30.730Z,98117.44
2023-05-16T03:10:57.263Z,98108.59
2023-05-16T03:13:23.794Z,98099.97
2023-05-16T03:15:50.390Z,98097.63
2023-05-16T03:18:16.907Z,98099.72
2023-05-16T03:20:43.382Z,98112.06
2023-05-16T03:23:09.851Z,98119.00
2023-05-16T03:25:36.593Z,98125.09
2023-05-16T03:28:05.398Z,98119.44
2023-05-16T03:30:31.887Z,98113.22
2023-05-16T03:32:58.463Z,98111.59
2023-05-16T03:35:25.236Z,98120.09
2023-05-16T03:37:51.926Z,98118.41
2023-05-16T03:40:18.524Z,98116.09
2023-05-16T03:42:45.334Z,98115.84
2023-05-16T03:45:12.454Z,98121.41
2023-05-16T03:47:39.003Z,98128.66
2023-05-16T03:50:06.464Z,98134.19
2023-05-16T03:52:33.886Z,98134.56
2023-05-16T03:55:01.893Z,98137.66
2023-05-16T03:57:29.677Z,98140.88
2023-05-16T03:59:56.205Z,98142.03
2023-05-16T04:02:22.739Z,98143.16
2023-05-16T04:04:49.229Z,98157.34
2023-05-16T04:07:15.808Z,98155.50
2023-05-16T04:09:42.269Z,98161.63
2023-05-16T04:12:08.782Z,98160.31
2023-05-16T04:14:35.427Z,98159.78
2023-05-16T04:17:02.032Z,98161.03
2023-05-16T04:19:28.656Z,98165.03
2023-05-16T04:21:55.342Z,98165.75
2023-05-16T04:24:26.245Z,98171.84
2023-05-16T04:26:52.827Z,98171.97
2023-05-16T04:29:19.586Z,98170.13
2023-05-16T04:31:46.140Z,98171.28
2023-05-16T04:34:13.170Z,98167.75
2023-05-16T04:36:40.338Z,98176.88
2023-05-16T04:39:07.452Z,98173.16
2023-05-16T04:41:35.075Z,98172.47
2023-05-16T04:44:04.640Z,98176.84
2023-05-16T04:46:31.290Z,98190.81
2023-05-16T04:48:57.803Z,98176.59
2023-05-16T04:51:24.461Z,98180.66
2023-05-16T04:53:50.917Z,98188.53
2023-05-16T04:56:17.817Z,98202.31
2023-05-16T04:58:44.292Z,98207.50
2023-05-16T05:01:10.920Z,98204.25
2023-05-16T05:03:37.493Z,98210.84
2023-05-16T05:06:04.438Z,98210.19
2023-05-16T05:08:31.003Z,98200.19
2023-05-16T05:10:57.488Z,98206.53
2023-05-16T05:13:24.163Z,98209.78
2023-05-16T05:15:52.281Z,98209.50
2023-05-16T05:18:18.823Z,98213.91
2023-05-16T05:20:45.328Z,98214.09
2023-05-16T05:23:11.818Z,98205.38
2023-05-16T05:25:38.851Z,98210.97
2023-05-16T05:28:05.320Z,98218.94
2023-05-16T05:30:32.133Z,98220.50
2023-05-16T05:32:58.648Z,98220.06
2023-05-16T05:35:25.224Z,98228.13
2023-05-16T05:37:52.207Z,98236.34
2023-05-16T05:40:18.966Z,98254.91
2023-05-16T05:42:47.005Z,98255.66
2023-05-16T05:45:15.345Z,98256.84
2023-05-16T05:47:41.964Z,98255.09
2023-05-16T05:50:09.120Z,98253.44
2023-05-16T05:52:35.674Z,98262.13
2023-05-16T05:55:02.485Z,98265.34
2023-05-16T05:57:28.947Z,98278.19
2023-05-16T05:59:55.616Z,98270.16
2023-05-16T06:02:22.196Z,98286.63
2023-05-16T06:04:48.687Z,98285.06
2023-05-16T06:07:16.817Z,98284.38
2023-05-16T06:09:43.620Z,98288.72
2023-05-16T06:12:10.087Z,98293.56
2023-05-16T06:14:36.613Z,98290.72
2023-05-16T06:17:03.128Z,98303.94
2023-05-16T06:19:29.804Z,98297.69
2023-05-16T06:21:56.285Z,98306.88
2023-05-16T06:24:22.876Z,98300.84
2023-05-16T06:26:50.254Z,98306.09
2023-05-16T06:29:17.317Z,98321.34
2023-05-16T06:31:45.490Z,98314.31
2023-05-16T06:34:11.973Z,98321.56
2023-05-16T06:36:38.465Z,98310.81
2023-05-16T06:39:05.019Z,98321.00
2023-05-16T06:41:31.471Z,98324.59
2023-05-16T06:43:58.282Z,98325.59
2023-05-16T06:46:24.868Z,98324.94
2023-05-16T06:48:51.434Z,98318.06
2023-05-16T06:51:17.944Z,98315.41
2023-05-16T06:53:44.452Z,98313.50
2023-05-16T06:56:11.042Z,98318.78
2023-05-16T06:58:37.558Z,98315.28
2023-05-16T07:01:04.157Z,98324.13
2023-05-16T07:03:31.930Z,98313.97
2023-05-16T07:05:58.768Z,98321.09
2023-05-16T07:08:25.889Z,98315.13
2023-05-16T07:10:52.495Z,98318.03
2023-05-16T07:13:19.020Z,98330.25
2023-05-16T07:15:45.615Z,98316.75
2023-05-16T07:18:12.392Z,98339.91
2023-05-16T07:20:38.973Z,98334.63
2023-05-16T07:23:05.587Z,98345.13
2023-05-16T07:25:32.166Z,98342.38
2023-05-16T07:27:58.716Z,98329.91
2023-05-16T07:30:25.302Z,98337.28
2023-05-16T07:32:51.925Z,98347.69
2023-05-16T07:35:18.497Z,98340.84
2023-05-16T07:37:45.053Z,98336.59
2023-05-16T07:40:11.984Z,98346.28
2023-05-16T07:42:38.564Z,98341.56
2023-05-16T07:45:06.954Z,98333.38
2023-05-16T07:47:33.532Z,98350.34
2023-05-16T07:50:01.687Z,98349.13
2023-05-16T07:52:28.507Z,98335.13
2023-05-16T07:54:55.374Z,98342.88
2023-05-16T07:57:24.025Z,98350.84
2023-05-16T07:59:52.443Z,98349.94
2023-05-16T08:02:19.260Z,98359.19
2023-05-16T08:04:46.881Z,98372.03
2023-05-16T08:07:13.657Z,98373.28
2023-05-16T08:09:40.188Z,98377.09
2023-05-16T08:12:07.017Z,98377.09
2023-05-16T08:14:33.534Z,98374.00
2023-05-16T08:17:00.454Z,98366.09
2023-05-16T08:19:27.243Z,98363.25
2023-05-16T08:21:53.898Z,98361.75
2023-05-16T08:24:20.601Z,98370.81
2023-05-16T08:26:47.462Z,98365.78
2023-05-16T08:29:14.621Z,98365.13
2023-05-16T08:31:41.197Z,98371.34
2023-05-16T08:34:09.357Z,98361.91
2023-05-16T08:36:36.904Z,98376.69
2023-05-16T08:39:03.529Z,98381.94
2023-05-16T08:41:30.334Z,98373.84
2023-05-16T08:43:57.265Z,98376.63
2023-05-16T08:46:23.942Z,98376.69
2023-05-16T08:48:53.184Z,98377.91
2023-05-16T08:51:20.389Z,98381.22
2023-05-16T08:53:55.439Z,98369.69
2023-05-16T08:56:22.369Z,98376.56
2023-05-16T08:58:50.422Z,98377.63
2023-05-16T09:01:17.012Z,98372.38
2023-05-16T09:03:43.643Z,98384.84
2023-05-16T09:06:10.382Z,98358.78
2023-05-16T09:08:36.945Z,98362.00
2023-05-16T09:11:05.560Z,98371.34
2023-05-16T09:13:32.090Z,98380.94
2023-05-16T09:16:18.152Z,98377.09
2023-05-16T09:18:46.144Z,98373.44
2023-05-16T09:21:13.493Z,98386.38
2023-05-16T09:23:40.776Z,98383.84
2023-05-16T09:26:08.208Z,98383.41
2023-05-16T09:28:34.909Z,98394.84
2023-05-16T09:31:02.335Z,98386.09
2023-05-16T09:33:29.300Z,98400.84
2023-05-16T09:35:59.660Z,98382.72
2023-05-16T09:38:29.965Z,98391.59
2023-05-16T09:40:56.504Z,98386.91
2023-05-16T09:43:27.648Z,98386.03
2023-05-16T09:45:54.534Z,98381.38
2023-05-16T09:48:21.304Z,98376.19
2023-05-16T09:50:53.323Z,98383.44
2023-05-16T09:53:30.763Z,98372.97
2023-05-16T09:56:15.653Z,98391.81
2023-05-16T09:58:43.584Z,98393.56
2023-05-16T10:01:10.579Z,98387.44
2023-05-16T10:03:42.261Z,98386.66
2023-05-16T10:06:09.099Z,98376.75
2023-05-16T10:08:36.754Z,98380.91
2023-05-16T10:11:04.382Z,98383.94
2023-05-16T10:13:31.972Z,98381.56
2023-05-16T10:15:59.411Z,98389.44
2023-05-16T10:18:30.338Z,98392.22
2023-05-16T10:20:58.115Z,98385.41
2023-05-16T10:23:25.558Z,98387.44
2023-05-16T10:25:52.400Z,98370.56
2023-05-16T10:28:18.926Z,98371.91
2023-05-16T10:30:46.060Z,98373.50
2023-05-16T10:33:16.809Z,98366.66
2023-05-16T10:35:43.914Z,98380.69
2023-05-16T10:38:12.064Z,98377.56
2023-05-16T10:40:39.458Z,98386.53
2023-05-16T10:43:08.296Z,98388.34
2023-05-16T10:45:35.937Z,98392.03
2023-05-16T10:48:04.730Z,98389.78
2023-05-16T10:50:38.132Z,98381.47
2023-05-16T10:53:23.984Z,98377.53
2023-05-16T10:55:56.632Z,98381.28
2023-05-16T10:58:42.405Z,98363.22
2023-05-16T11:01:15.622Z,98373.16
2023-05-16T11:03:57.884Z,98375.19
2023-05-16T11:06:25.403Z,98363.06
2023-05-16T11:09:07.000Z,98361.19
2023-05-16T11:11:51.899Z,98372.72
2023-05-16T11:14:34.090Z,98372.47
2023-05-16T11:17:10.785Z,98379.94
2023-05-16T11:19:42.617Z,98372.22
2023-05-16T11:22:08.992Z,98376.97
2023-05-16T11:24:36.510Z,98380.59
2023-05-16T11:27:03.868Z,98376.31
2023-05-16T11:29:34.474Z,98388.13
2023-05-16T11:32:01.714Z,98390.22
2023-05-16T11:34:29.024Z,98378.25
2023-05-16T11:36:56.247Z,98380.25
2023-05-16T11:39:25.164Z,98376.81
2023-05-16T11:41:53.166Z,98377.94
2023-05-16T11:44:19.787Z,98387.16
2023-05-16T11:46:46.531Z,98392.22
2023-05-16T11:49:13.206Z,98405.69
2023-05-16T11:51:41.061Z,98406.19
2023-05-16T11:54:09.258Z,98410.66
2023-05-16T11:56:36.074Z,98412.00
2023-05-16T11:59:02.681Z,98417.28
2023-05-16T12:01:34.487Z,98422.91
2023-05-16T12:04:01.154Z,98403.97
2023-05-16T12:06:29.355Z,98405.09
2023-05-16T12:08:55.950Z,98423.88
2023-05-16T12:11:23.685Z,98410.69
2023-05-16T12:13:50.295Z,98394.78
2023-05-16T12:16:17.084Z,98403.06
2023-05-16T12:18:44.602Z,98400.16
2023-05-16T12:21:11.617Z,98398.25
2023-05-16T12:23:40.471Z,98397.06
2023-05-16T12:26:09.569Z,98390.31
2023-05-16T12:28:37.767Z,98395.56
2023-05-16T12:31:04.356Z,98400.47
2023-05-16T12:33:31.272Z,98390.41
2023-05-16T12:35:57.840Z,98382.25
2023-05-16T12:38:26.549Z,98383.31
2023-05-16T12:40:57.959Z,98402.31
2023-05-16T12:43:24.536Z,98401.84
2023-05-16T12:45:57.404Z,98403.16
2023-05-16T12:48:24.889Z,98398.97
2023-05-16T12:50:51.487Z,98393.91
2023-05-16T12:53:18.355Z,98398.47
2023-05-16T12:55:45.036Z,98403.94
2023-05-16T12:58:12.699Z,98403.19
2023-05-16T13:00:39.526Z,98402.38
2023-05-16T13:03:06.412Z,98387.78
2023-05-16T13:05:33.275Z,98385.06
2023-05-16T13:08:00.197Z,98393.28
2023-05-16T13:10:27.077Z,98394.03
2023-05-16T13:12:53.841Z,98393.97
2023-05-16T13:15:20.444Z,98410.91
2023-05-16T13:17:48.528Z,98400.84
2023-05-16T13:20:15.674Z,98389.09
2023-05-16T13:22:42.800Z,98392.81
2023-05-16T13:25:10.483Z,98399.88
2023-05-16T13:27:37.049Z,98408.25
2023-05-16T13:30:04.439Z,98403.72
2023-05-16T13:32:31.036Z,98404.34
2023-05-16T13:34:57.628Z,98408.31
2023-05-16T13:37:27.457Z,98417.59
2023-05-16T13:39:56.906Z,98424.63
2023-05-16T13:42:23.439Z,98431.22
2023-05-16T13:44:50.280Z,98437.03
2023-05-16T13:47:16.883Z,98442.44
2023-05-16T13:49:43.503Z,98435.19
2023-05-16T13:52:10.104Z,98443.88
2023-05-16T13:54:36.624Z,98439.66
2023-05-16T13:57:03.581Z,98436.09
2023-05-16T13:59:52.570Z,98443.53
2023-05-16T14:02:16.658Z,98445.13
2023-05-16T14:04:43.185Z,98449.50
2023-05-16T14:07:09.712Z,98439.41
2023-05-16T14:09:39.182Z,98438.47
2023-05-16T14:12:07.254Z,98430.16
2023-05-16T14:14:34.757Z,98444.06
2023-05-16T14:17:01.343Z,98449.06
2023-05-16T14:19:27.926Z,98431.91
2023-05-16T14:21:54.960Z,98437.50
2023-05-16T14:24:21.596Z,98431.28
2023-05-16T14:26:48.127Z,98440.19
2023-05-16T14:29:14.715Z,98434.53
2023-05-16T14:31:41.389Z,98440.00
2023-05-16T14:34:07.959Z,98447.25
2023-05-16T14:36:35.173Z,98433.00
2023-05-16T14:39:01.743Z,98430.59
2023-05-16T14:41:28.245Z,98434.13
2023-05-16T14:43:55.179Z,98432.41
2023-05-16T14:46:21.740Z,98442.63
2023-05-16T14:48:48.300Z,98437.53
2023-05-16T14:51:15.290Z,98432.53
2023-05-16T14:53:41.824Z,98440.78
2023-05-16T14:56:08.340Z,98431.38
2023-05-16T14:58:34.875Z,98450.34
2023-05-16T15:01:01.384Z,98455.97
2023-05-16T15:03:27.879Z,98451.59
2023-05-16T15:05:54.752Z,98459.16
2023-05-16T15:08:22.267Z,98460.53
2023-05-16T15:10:48.818Z,98462.66
2023-05-16T15:13:15.341Z,98471.44
2023-05-16T15:15:42.201Z,98483.47
2023-05-16T15:18:10.519Z,98484.81
2023-05-16T15:20:37.690Z,98483.50
2023-05-16T15:23:04.756Z,98499.41
2023-05-16T15:25:31.552Z,98496.03
2023-05-16T15:27:58.250Z,98505.34
2023-05-16T15:30:24.843Z,98497.06
2023-05-16T15:32:51.657Z,98493.47
2023-05-16T15:35:18.224Z,98493.25
2023-05-16T15:37:44.781Z,98492.44
2023-05-16T15:40:11.760Z,98497.94
2023-05-16T15:42:38.340Z,98500.41
2023-05-16T15:45:05.232Z,98490.41
2023-05-16T15:47:32.101Z,98494.44
2023-05-16T15:49:58.657Z,98501.94
2023-05-16T15:52:25.247Z,98494.25
2023-05-16T15:54:51.778Z,98485.84
2023-05-16T15:57:19.173Z,98489.66
2023-05-16T15:59:45.748Z,98482.13
2023-05-16T16:02:12.353Z,98486.25
2023-05-16T16:04:38.917Z,98497.94
2023-05-16T16:07:05.802Z,98496.13
2023-05-16T16:09:32.300Z,98496.53
2023-05-16T16:12:01.658Z,98504.75
2023-05-16T16:14:28.167Z,98492.47
2023-05-16T16:16:54.703Z,98490.56
2023-05-16T16:19:21.412Z,98496.22
2023-05-16T16:21:48.131Z,98499.72
2023-05-16T16:24:15.115Z,98497.34
2023-05-16T16:26:42.244Z,98491.84
2023-05-16T16:29:08.791Z,98494.34
2023-05-16T16:31:35.593Z,98501.31
2023-05-16T16:34:02.294Z,98487.63
2023-05-16T16:36:28.853Z,98502.63
2023-05-16T16:38:55.409Z,98503.44
2023-05-16T16:41:22.019Z,98510.63
2023-05-16T16:43:48.607Z,98516.09
2023-05-16T16:46:15.166Z,98513.03
2023-05-16T16:48:42.604Z,98506.22
2023-05-16T16:51:09.103Z,98510.78
2023-05-16T16:53:38.097Z,98513.06
2023-05-16T16:56:04.823Z,98505.59
2023-05-16T16:58:31.419Z,98517.72
2023-05-16T17:01:01.314Z,98514.47
2023-05-16T17:03:28.001Z,98509.81
2023-05-16T17:05:54.588Z,98509.00
2023-05-16T17:08:21.612Z,98517.78
2023-05-16T17:10:48.200Z,98512.63
2023-05-16T17:13:14.896Z,98511.69
2023-05-16T17:15:44.297Z,98520.22
2023-05-16T17:18:11.025Z,98517.69
2023-05-16T17:20:37.628Z,98518.34
2023-05-16T17:23:04.215Z,98517.31
2023-05-16T17:25:30.910Z,98522.63
2023-05-16T17:27:57.642Z,98526.41
2023-05-16T17:30:24.142Z,98532.00
2023-05-16T17:32:50.832Z,98526.78
2023-05-16T17:35:18.340Z,98529.72
2023-05-16T17:37:47.254Z,98543.72
2023-05-16T17:40:16.782Z,98540.19
2023-05-16T17:42:44.423Z,98541.22
2023-05-16T17:45:15.448Z,98539.44
2023-05-16T17:47:42.580Z,98538.84
2023-05-16T17:50:10.194Z,98534.81
2023-05-16T17:52:38.482Z,98539.44
2023-05-16T17:55:06.356Z,98531.47
2023-05-16T17:57:34.229Z,98539.50
2023-05-16T18:00:01.668Z,98549.66
2023-05-16T18:02:28.256Z,98539.69
2023-05-16T18:04:55.746Z,98549.28
2023-05-16T18:07:22.384Z,98555.59
2023-05-16T18:09:49.221Z,98553.28
2023-05-16T18:12:15.876Z,98553.34
2023-05-16T18:14:45.172Z,98561.66
2023-05-16T18:17:13.305Z,98566.50
2023-05-16T18:19:40.000Z,98568.19
2023-05-16T18:22:08.636Z,98574.56
2023-05-16T18:24:37.137Z,98565.75
2023-05-16T18:27:03.798Z,98570.50
2023-05-16T18:29:30.451Z,98575.59
2023-05-16T18:31:57.215Z,98579.19
2023-05-16T18:34:23.777Z,98576.06
2023-05-16T18:36:50.518Z,98579.22
2023-05-16T18:39:18.785Z,98588.44
2023-05-16T18:41:46.684Z,98586.81
2023-05-16T18:44:13.299Z,98590.06
2023-05-16T18:46:40.132Z,98584.28
2023-05-16T18:49:06.637Z,98580.69
2023-05-16T18:51:33.161Z,98593.41
2023-05-16T18:53:59.683Z,98589.75
2023-05-16T18:56:26.885Z,98604.53
2023-05-16T18:58:53.667Z,98605.09
2023-05-16T19:01:22.314Z,98606.94
2023-05-16T19:03:49.484Z,98607.19
2023-05-16T19:06:16.679Z,98614.28
2023-05-16T19:08:47.867Z,98613.50
2023-05-16T19:11:14.995Z,98614.72
2023-05-16T19:13:41.526Z,98616.34
2023-05-16T19:16:10.124Z,98622.88
2023-05-16T19:18:37.172Z,98613.50
2023-05-16T19:21:03.936Z,98634.34
2023-05-16T19:23:30.467Z,98632.75
2023-05-16T19:25:57.175Z,98638.88
2023-05-16T19:28:24.681Z,98643.53
2023-05-16T19:30:51.346Z,98650.25
2023-05-16T19:33:17.887Z,98652.75
2023-05-16T19:35:45.021Z,98647.34
2023-05-16T19:38:11.683Z,98648.41
2023-05-16T19:40:38.211Z,98648.88
2023-05-16T19:43:04.890Z,98658.81
2023-05-16T19:45:31.469Z,98646.84
2023-05-16T19:47:58.259Z,98650.91
2023-05-16T19:50:25.180Z,98649.09
2023-05-16T19:52:51.701Z,98661.28
2023-05-16T19:55:18.223Z,98660.00
2023-05-16T19:57:44.777Z,98658.31
2023-05-16T20:00:11.942Z,98661.63
2023-05-16T20:02:38.596Z,98650.50
2023-05-16T20:05:05.610Z,98653.59
2023-05-16T20:07:32.152Z,98654.34
2023-05-16T20:09:59.006Z,98654.34
2023-05-16T20:12:25.687Z,98663.50
2023-05-16T20:14:52.191Z,98659.38
2023-05-16T20:17:18.736Z,98660.47
2023-05-16T20:19:46.592Z,98664.28
2023-05-16T20:22:13.132Z,98658.94
2023-05-16T20:24:39.723Z,98668.63
2023-05-16T20:27:06.270Z,98670.34
2023-05-16T20:29:33.825Z,98674.63
2023-05-16T20:32:00.805Z,98670.09
2023-05-16T20:34:27.940Z,98662.91
2023-05-16T20:36:54.468Z,98665.88
2023-05-16T20:39:20.963Z,98666.31
2023-05-16T20:41:47.530Z,98659.44
2023-05-16T20:44:15.298Z,98663.41
2023-05-16T20:46:43.161Z,98667.44
2023-05-16T20:49:11.846Z,98660.69
2023-05-16T20:51:38.391Z,98658.28
2023-05-16T20:54:04.922Z,98657.44
2023-05-16T20:56:31.474Z,98650.41
2023-05-16T20:58:58.235Z,98651.56
2023-05-16T21:01:24.742Z,98655.59
2023-05-16T21:03:51.278Z,98659.53
2023-05-16T21:06:17.811Z,98654.75
2023-05-16T21:08:44.583Z,98654.88
2023-05-16T21:11:11.109Z,98652.72
2023-05-16T21:13:37.624Z,98660.88
2023-05-16T21:16:04.209Z,98646.91
2023-05-16T21:18:30.827Z,98657.84
2023-05-16T21:20:57.397Z,98649.00
2023-05-16T21:23:23.904Z,98650.00
2023-05-16T21:25:50.404Z,98654.69
2023-05-16T21:28:16.926Z,98654.91
2023-05-16T21:30:43.470Z,98653.22
2023-05-16T21:33:10.394Z,98653.22
2023-05-16T21:35:37.063Z,98650.75
2023-05-16T21:38:03.590Z,98645.72
2023-05-16T21:40:30.121Z,98654.88
2023-05-16T21:42:56.629Z,98657.16
2023-05-16T21:45:23.212Z,98653.63
2023-05-16T21:47:49.888Z,98658.34
2023-05-16T21:50:17.664Z,98654.25
2023-05-16T21:52:44.217Z,98654.59
2023-05-16T21:55:10.715Z,98663.66
2023-05-16T21:57:37.266Z,98662.25
2023-05-16T22:00:06.741Z,98653.88
2023-05-16T22:02:33.630Z,98661.53
2023-05-16T22:05:00.303Z,98666.75
2023-05-16T22:07:29.786Z,98656.84
2023-05-16T22:09:56.502Z,98664.38
2023-05-16T22:12:23.912Z,98662.91
2023-05-16T22:14:50.832Z,98668.97
2023-05-16T22:17:19.302Z,98666.84
2023-05-16T22:19:46.125Z,98670.91
2023-05-16T22:22:12.756Z,98669.94
2023-05-16T22:24:39.279Z,98674.00
2023-05-16T22:27:06.120Z,98670.22
2023-05-16T22:29:37.893Z,98674.84
2023-05-16T22:32:08.014Z,98678.56
2023-05-16T22:34:35.341Z,98674.66
2023-05-16T22:37:01.877Z,98674.19
2023-05-16T22:39:28.392Z,98675.19
2023-05-16T22:41:55.908Z,98673.56
2023-05-16T22:44:22.430Z,98676.22
2023-05-16T22:46:49.072Z,98677.66
2023-05-16T22:49:16.335Z,98682.72
2023-05-16T22:51:42.902Z,98693.28
2023-05-16T22:54:09.468Z,98695.72
2023-05-16T22:56:35.961Z,98688.88
2023-05-16T22:59:02.485Z,98682.88
2023-05-16T23:01:29.334Z,98692.16
2023-05-16T23:03:56.007Z,98698.25
2023-05-16T23:06:22.944Z,98681.91
2023-05-16T23:08:49.469Z,98682.72
2023-05-16T23:11:15.997Z,98687.88
2023-05-16T23:13:42.520Z,98688.22
2023-05-16T23:16:09.081Z,98691.03
2023-05-16T23:18:35.712Z,98691.16
2023-05-16T23:21:02.414Z,98691.50
2023-05-16T23:23:28.938Z,98688.72
2023-05-16T23:25:55.465Z,98695.63
2023-05-16T23:28:22.051Z,98691.94
2023-05-16T23:30:48.593Z,98696.59
2023-05-16T23:33:15.193Z,98692.03
2023-05-16T23:35:41.747Z,98694.84
2023-05-16T23:38:08.264Z,98694.16
2023-05-16T23:40:34.796Z,98694.47
2023-05-16T23:43:01.295Z,98682.78
2023-05-16T23:45:28.708Z,98697.72
2023-05-16T23:47:55.742Z,98694.50
2023-05-16T23:50:23.469Z,98700.38
2023-05-16T23:52:50.249Z,98697.13
2023-05-16T23:55:17.160Z,98693.91
2023-05-16T23:57:43.682Z,98683.81
